Terminal Aerodrome Forecast
Issued by NWS Buffalo, NY

Home | Current Version | Previous Version | Text Only | Print | Product List | Glossary On
Versions: 1 2 3 4 5 6 7 8 9 10 11 12 13 14 15 16 17 18 19 20 21 22 23
642
FTUS41 KBUF 010540
TAFART
TAF
KART 010540Z 0106/0206 07006KT P6SM OVC060
     FM010900 08006KT P6SM SCT025 OVC035
     FM012100 07008KT P6SM BKN035
     FM020200 11006KT P6SM -SHRA OVC025=

USA.gov is the U.S. government's official web portal to all federal, state and local government web resources and services.